createdAt,value
2016-05-10T00:00:30.221Z,0
2016-05-10T00:01:30.254Z,0
2016-05-10T00:02:30.101Z,0
2016-05-10T00:03:30.072Z,0
2016-05-10T00:04:29.919Z,0
2016-05-10T00:05:30.140Z,0
2016-05-10T00:06:30.252Z,0
2016-05-10T00:07:29.927Z,0
2016-05-10T00:08:30.132Z,0
2016-05-10T00:09:30.276Z,0
2016-05-10T00:10:30.279Z,0
2016-05-10T00:11:30.126Z,0
2016-05-10T00:12:29.967Z,0
2016-05-10T00:13:30.355Z,0
2016-05-10T00:14:31.055Z,0
2016-05-10T00:15:30.427Z,0
2016-05-10T00:16:30.502Z,0
2016-05-10T00:17:30.497Z,0
2016-05-10T00:18:30.530Z,0
2016-05-10T00:19:30.359Z,0
2016-05-10T00:20:30.393Z,0
2016-05-10T00:21:30.629Z,0
2016-05-10T00:22:30.421Z,0
2016-05-10T00:23:30.288Z,0
2016-05-10T00:24:30.438Z,0
2016-05-10T00:25:30.586Z,0
2016-05-10T00:26:30.625Z,0
2016-05-10T00:27:30.615Z,0
2016-05-10T00:28:30.636Z,0
2016-05-10T00:29:30.750Z,0
2016-05-10T00:30:30.676Z,0
2016-05-10T00:31:30.650Z,0
2016-05-10T00:32:30.700Z,0
2016-05-10T00:33:30.641Z,0
2016-05-10T00:34:30.675Z,0
2016-05-10T00:35:30.695Z,0
2016-05-10T00:36:30.667Z,0
2016-05-10T00:37:30.670Z,0
2016-05-10T00:38:30.658Z,0
2016-05-10T00:39:30.676Z,0
2016-05-10T00:40:30.679Z,0
2016-05-10T00:41:30.682Z,0
2016-05-10T00:42:30.669Z,0
2016-05-10T00:43:30.703Z,0
2016-05-10T00:44:30.565Z,0
2016-05-10T00:45:30.725Z,0
2016-05-10T00:46:30.696Z,0
2016-05-10T00:47:30.699Z,0
2016-05-10T00:48:30.686Z,0
2016-05-10T00:49:30.719Z,0
2016-05-10T00:50:30.566Z,0
2016-05-10T00:51:30.709Z,0
2016-05-10T00:52:30.712Z,0
2016-05-10T00:53:30.715Z,0
2016-05-10T00:54:30.749Z,0
2016-05-10T00:55:30.721Z,0
2016-05-10T00:56:30.754Z,0
2016-05-10T00:57:30.741Z,0
2016-05-10T00:58:30.572Z,0
2016-05-10T00:59:30.715Z,0
2016-05-10T01:00:30.578Z,0
2016-05-10T01:01:30.751Z,0
2016-05-10T01:02:30.598Z,0
2016-05-10T01:03:30.601Z,0
2016-05-10T01:04:30.760Z,0
2016-05-10T01:05:30.762Z,0
2016-05-10T01:06:30.765Z,0
2016-05-10T01:07:30.768Z,0
2016-05-10T01:08:30.770Z,0
2016-05-10T01:09:30.789Z,0
2016-05-10T01:10:30.776Z,0
2016-05-10T01:11:30.778Z,0
2016-05-10T01:12:30.625Z,0
2016-05-10T01:13:30.472Z,0
2016-05-10T01:14:31.709Z,0
2016-05-10T01:15:30.805Z,0
2016-05-10T01:16:30.792Z,0
2016-05-10T01:17:30.795Z,0
2016-05-10T01:18:30.813Z,0
2016-05-10T01:19:30.816Z,0
2016-05-10T01:20:30.819Z,0
2016-05-10T01:21:30.805Z,0
2016-05-10T01:22:30.808Z,0
2016-05-10T01:23:30.686Z,0
2016-05-10T01:24:30.814Z,0
2016-05-10T01:25:30.801Z,0
2016-05-10T01:26:30.819Z,0
2016-05-10T01:27:30.821Z,0
2016-05-10T01:28:30.684Z,0
2016-05-10T01:29:30.796Z,0
2016-05-10T01:30:30.658Z,0
2016-05-10T01:31:30.817Z,0
2016-05-10T01:32:30.648Z,0
2016-05-10T01:33:30.838Z,0
2016-05-10T01:34:30.684Z,0
2016-05-10T01:35:30.843Z,0
2016-05-10T01:36:30.534Z,0
2016-05-10T01:37:30.864Z,0
2016-05-10T01:38:30.867Z,0
2016-05-10T01:39:30.698Z,0
2016-05-10T01:40:30.857Z,0
2016-05-10T01:41:30.859Z,0
2016-05-10T01:42:30.862Z,0
2016-05-10T01:43:30.864Z,0
2016-05-10T01:44:32.164Z,0
2016-05-10T01:45:30.745Z,0
2016-05-10T01:46:30.561Z,0
2016-05-10T01:47:30.892Z,0
2016-05-10T01:48:30.707Z,0
2016-05-10T01:49:30.880Z,0
2016-05-10T01:50:30.571Z,0
2016-05-10T01:51:30.715Z,0
2016-05-10T01:52:30.874Z,0
2016-05-10T01:53:30.736Z,0
2016-05-10T01:54:30.754Z,0
2016-05-10T01:55:30.882Z,0
2016-05-10T01:56:30.915Z,0
2016-05-10T01:57:30.903Z,0
2016-05-10T01:58:30.780Z,0
2016-05-10T01:59:30.971Z,0
2016-05-10T02:00:30.910Z,0
2016-05-10T02:01:30.913Z,0
2016-05-10T02:02:30.759Z,0
2016-05-10T02:03:30.903Z,0
2016-05-10T02:04:30.765Z,0
2016-05-10T02:05:30.784Z,0
2016-05-10T02:06:30.615Z,0
2016-05-10T02:07:30.914Z,0
2016-05-10T02:08:30.760Z,0
2016-05-10T02:09:30.794Z,0
2016-05-10T02:10:30.781Z,0
2016-05-10T02:11:30.784Z,0
2016-05-10T02:12:30.834Z,0
2016-05-10T02:13:30.945Z,0
2016-05-10T02:14:30.667Z,0
2016-05-10T02:15:30.950Z,0
2016-05-10T02:16:30.969Z,0
2016-05-10T02:17:30.785Z,0
2016-05-10T02:18:30.944Z,0
2016-05-10T02:19:30.821Z,0
2016-05-10T02:20:30.793Z,0
2016-05-10T02:21:30.811Z,0
2016-05-10T02:22:30.985Z,0
2016-05-10T02:23:31.238Z,0
2016-05-10T02:24:30.960Z,0
2016-05-10T02:25:30.666Z,0
2016-05-10T02:26:30.965Z,0
2016-05-10T02:27:30.983Z,0
2016-05-10T02:28:31.002Z,0
2016-05-10T02:29:31.082Z,0
2016-05-10T02:30:30.851Z,0
2016-05-10T02:31:30.962Z,0
2016-05-10T02:32:30.996Z,0
2016-05-10T02:33:30.999Z,0
2016-05-10T02:34:30.987Z,0
2016-05-10T02:35:30.990Z,0
2016-05-10T02:36:31.070Z,0
2016-05-10T02:37:30.994Z,0
2016-05-10T02:38:30.997Z,0
2016-05-10T02:39:31.000Z,0
2016-05-10T02:40:31.034Z,0
2016-05-10T02:41:31.037Z,0
2016-05-10T02:42:31.039Z,0
2016-05-10T02:43:31.011Z,0
2016-05-10T02:44:30.997Z,0
2016-05-10T02:45:30.876Z,0
2016-05-10T02:46:31.034Z,0
2016-05-10T02:47:31.021Z,0
2016-05-10T02:48:30.884Z,0
2016-05-10T02:49:31.042Z,0
2016-05-10T02:50:31.044Z,0
2016-05-10T02:51:30.892Z,0
2016-05-10T02:52:31.050Z,0
2016-05-10T02:53:31.053Z,0
2016-05-10T02:54:31.056Z,0
2016-05-10T02:55:31.074Z,0
2016-05-10T02:56:31.046Z,0
2016-05-10T02:57:30.907Z,0
2016-05-10T02:58:31.082Z,0
2016-05-10T02:59:30.851Z,0
2016-05-10T03:00:31.071Z,0
2016-05-10T03:01:31.060Z,0
2016-05-10T03:02:31.077Z,0
2016-05-10T03:03:31.096Z,0
2016-05-10T03:04:31.098Z,0
2016-05-10T03:05:30.898Z,0
2016-05-10T03:06:31.088Z,0
2016-05-10T03:07:30.919Z,0
2016-05-10T03:08:31.093Z,0
2016-05-10T03:09:30.956Z,4
2016-05-10T03:10:30.786Z,4
2016-05-10T03:11:31.101Z,4
2016-05-10T03:12:30.948Z,0
2016-05-10T03:13:31.107Z,0
2016-05-10T03:14:30.969Z,0
2016-05-10T03:15:31.112Z,4
2016-05-10T03:16:31.208Z,4
2016-05-10T03:17:30.962Z,0
2016-05-10T03:18:30.808Z,4
2016-05-10T03:19:30.982Z,4
2016-05-10T03:20:30.970Z,4
2016-05-10T03:21:31.113Z,4
2016-05-10T03:22:31.130Z,4
2016-05-10T03:23:31.149Z,4
2016-05-10T03:24:31.011Z,8
2016-05-10T03:25:31.155Z,4
2016-05-10T03:26:31.158Z,8
2016-05-10T03:27:31.176Z,8
2016-05-10T03:28:31.132Z,8
2016-05-10T03:29:31.525Z,8
2016-05-10T03:30:31.152Z,12
2016-05-10T03:31:31.187Z,12
2016-05-10T03:32:31.190Z,12
2016-05-10T03:33:31.176Z,12
2016-05-10T03:34:31.179Z,16
2016-05-10T03:35:31.229Z,20
2016-05-10T03:36:31.168Z,24
2016-05-10T03:37:31.032Z,24
2016-05-10T03:38:31.189Z,32
2016-05-10T03:39:31.036Z,36
2016-05-10T03:40:31.179Z,40
2016-05-10T03:41:31.042Z,48
2016-05-10T03:42:31.185Z,48
2016-05-10T03:43:31.031Z,56
2016-05-10T03:44:30.909Z,64
2016-05-10T03:45:31.053Z,72
2016-05-10T03:46:31.211Z,80
2016-05-10T03:47:31.198Z,88
2016-05-10T03:48:31.217Z,96
2016-05-10T03:49:31.220Z,104
2016-05-10T03:50:31.066Z,108
2016-05-10T03:51:31.208Z,112
2016-05-10T03:52:31.071Z,120
2016-05-10T03:53:31.089Z,124
2016-05-10T03:54:31.233Z,132
2016-05-10T03:55:31.064Z,140
2016-05-10T03:56:31.208Z,148
2016-05-10T03:57:31.241Z,160
2016-05-10T03:58:31.118Z,172
2016-05-10T03:59:31.246Z,180
2016-05-10T04:00:31.249Z,180
2016-05-10T04:01:31.252Z,184
2016-05-10T04:02:31.254Z,188
2016-05-10T04:03:31.273Z,196
2016-05-10T04:04:31.275Z,208
2016-05-10T04:05:31.246Z,216
2016-05-10T04:06:31.109Z,236
2016-05-10T04:07:31.127Z,256
2016-05-10T04:08:31.287Z,276
2016-05-10T04:09:31.273Z,300
2016-05-10T04:10:31.292Z,328
2016-05-10T04:11:31.279Z,344
2016-05-10T04:12:31.312Z,360
2016-05-10T04:13:31.300Z,376
2016-05-10T04:14:31.131Z,392
2016-05-10T04:15:31.133Z,408
2016-05-10T04:16:31.292Z,424
2016-05-10T04:17:31.295Z,452
2016-05-10T04:18:31.125Z,512
2016-05-10T04:19:31.316Z,580
2016-05-10T04:20:31.318Z,632
2016-05-10T04:21:31.321Z,620
2016-05-10T04:22:31.308Z,568
2016-05-10T04:23:31.327Z,548
2016-05-10T04:24:31.330Z,552
2016-05-10T04:25:31.333Z,576
2016-05-10T04:26:31.366Z,604
2016-05-10T04:27:31.305Z,628
2016-05-10T04:28:31.340Z,644
2016-05-10T04:29:31.030Z,664
2016-05-10T04:30:31.346Z,692
2016-05-10T04:31:31.161Z,736
2016-05-10T04:32:31.366Z,788
2016-05-10T04:33:31.321Z,804
2016-05-10T04:34:31.372Z,792
2016-05-10T04:35:31.374Z,792
2016-05-10T04:36:31.362Z,804
2016-05-10T04:37:31.380Z,812
2016-05-10T04:38:31.351Z,828
2016-05-10T04:39:31.354Z,848
2016-05-10T04:40:31.387Z,872
2016-05-10T04:41:31.375Z,896
2016-05-10T04:42:31.221Z,912
2016-05-10T04:43:31.396Z,932
2016-05-10T04:44:31.384Z,952
2016-05-10T04:45:31.401Z,976
2016-05-10T04:46:31.403Z,996
2016-05-10T04:47:31.406Z,1012
2016-05-10T04:48:31.409Z,1028
2016-05-10T04:49:31.412Z,1048
2016-05-10T04:50:31.400Z,1072
2016-05-10T04:51:31.402Z,1092
2016-05-10T04:52:31.419Z,1108
2016-05-10T04:53:31.250Z,1128
2016-05-10T04:54:31.082Z,1148
2016-05-10T04:55:31.413Z,1168
2016-05-10T04:56:31.399Z,1188
2016-05-10T04:57:31.403Z,1212
2016-05-10T04:58:31.280Z,1232
2016-05-10T04:59:31.127Z,1256
2016-05-10T05:00:31.427Z,1280
2016-05-10T05:01:31.272Z,1304
2016-05-10T05:02:31.275Z,1328
2016-05-10T05:03:31.434Z,1352
2016-05-10T05:04:31.452Z,1380
2016-05-10T05:05:31.440Z,1404
2016-05-10T05:06:31.442Z,1428
2016-05-10T05:07:31.445Z,1456
2016-05-10T05:08:31.479Z,1480
2016-05-10T05:09:31.278Z,1512
2016-05-10T05:10:31.469Z,1540
2016-05-10T05:11:31.487Z,1572
2016-05-10T05:12:31.473Z,1612
2016-05-10T05:13:31.290Z,1644
2016-05-10T05:14:31.636Z,1672
2016-05-10T05:15:31.341Z,1704
2016-05-10T05:16:31.470Z,1736
2016-05-10T05:17:31.347Z,1768
2016-05-10T05:18:31.506Z,1800
2016-05-10T05:19:31.320Z,1832
2016-05-10T05:20:31.495Z,1860
2016-05-10T05:21:31.498Z,1888
2016-05-10T05:22:31.360Z,1920
2016-05-10T05:23:31.519Z,1952
2016-05-10T05:24:31.506Z,1984
2016-05-10T05:25:31.525Z,2028
2016-05-10T05:26:31.371Z,2060
2016-05-10T05:27:31.514Z,2096
2016-05-10T05:28:31.376Z,2132
2016-05-10T05:29:31.832Z,2164
2016-05-10T05:30:31.522Z,2200
2016-05-10T05:31:31.384Z,2252
2016-05-10T05:32:31.403Z,2300
2016-05-10T05:33:31.422Z,2352
2016-05-10T05:34:31.549Z,2408
2016-05-10T05:35:31.426Z,2464
2016-05-10T05:36:31.429Z,2524
2016-05-10T05:37:31.573Z,2580
2016-05-10T05:38:31.575Z,2640
2016-05-10T05:39:31.578Z,2704
2016-05-10T05:40:31.581Z,2768
2016-05-10T05:41:31.584Z,2832
2016-05-10T05:42:31.445Z,2900
2016-05-10T05:43:31.448Z,2968
2016-05-10T05:44:31.592Z,3032
2016-05-10T05:45:31.609Z,3088
2016-05-10T05:46:31.597Z,3156
2016-05-10T05:47:31.600Z,3224
2016-05-10T05:48:31.445Z,3284
2016-05-10T05:49:31.621Z,3356
2016-05-10T05:50:31.623Z,3404
2016-05-10T05:51:31.610Z,3452
2016-05-10T05:52:31.519Z,3468
2016-05-10T05:53:31.631Z,3508
2016-05-10T05:54:31.618Z,3544
2016-05-10T05:55:31.621Z,3556
2016-05-10T05:56:31.624Z,3568
2016-05-10T05:57:31.657Z,3572
2016-05-10T05:58:31.644Z,3568
2016-05-10T05:59:31.335Z,3560
2016-05-10T06:00:31.510Z,3552
2016-05-10T06:01:31.652Z,3520
2016-05-10T06:02:31.671Z,3500
2016-05-10T06:03:31.643Z,3464
2016-05-10T06:04:31.505Z,3416
2016-05-10T06:05:31.679Z,3372
2016-05-10T06:06:31.697Z,3312
2016-05-10T06:07:31.700Z,3264
2016-05-10T06:08:31.688Z,3212
2016-05-10T06:09:31.533Z,3160
2016-05-10T06:10:31.692Z,3108
2016-05-10T06:11:31.695Z,3056
2016-05-10T06:12:31.698Z,3008
2016-05-10T06:13:31.529Z,2972
2016-05-10T06:14:32.657Z,2916
2016-05-10T06:15:31.737Z,2864
2016-05-10T06:16:31.552Z,2832
2016-05-10T06:17:31.570Z,2796
2016-05-10T06:18:31.604Z,2760
2016-05-10T06:19:31.748Z,2724
2016-05-10T06:20:31.767Z,2688
2016-05-10T06:21:31.738Z,2648
2016-05-10T06:22:31.756Z,2616
2016-05-10T06:23:31.759Z,2596
2016-05-10T06:24:31.745Z,2580
2016-05-10T06:25:31.764Z,2572
2016-05-10T06:26:31.625Z,2568
2016-05-10T06:27:31.770Z,2572
2016-05-10T06:28:31.772Z,2580
2016-05-10T06:29:31.478Z,2608
2016-05-10T06:30:31.761Z,2604
2016-05-10T06:31:31.672Z,2624
2016-05-10T06:32:31.626Z,2648
2016-05-10T06:33:31.785Z,2676
2016-05-10T06:34:31.788Z,2672
2016-05-10T06:35:31.791Z,2708
2016-05-10T06:36:31.777Z,2752
2016-05-10T06:37:31.672Z,2788
2016-05-10T06:38:31.815Z,2820
2016-05-10T06:39:31.817Z,2848
2016-05-10T06:40:31.835Z,2884
2016-05-10T06:41:31.823Z,2932
2016-05-10T06:42:31.701Z,2956
2016-05-10T06:43:31.829Z,2996
2016-05-10T06:44:32.112Z,3032
2016-05-10T06:45:31.756Z,3072
2016-05-10T06:46:31.727Z,3104
2016-05-10T06:47:31.839Z,3140
2016-05-10T06:48:31.701Z,3156
2016-05-10T06:49:31.548Z,3168
2016-05-10T06:50:31.847Z,3188
2016-05-10T06:51:31.865Z,3180
2016-05-10T06:52:31.712Z,3184
2016-05-10T06:53:31.715Z,3188
2016-05-10T06:54:31.576Z,3196
2016-05-10T06:55:31.875Z,3196
2016-05-10T06:56:31.878Z,3208
2016-05-10T06:57:31.866Z,3216
2016-05-10T06:58:31.884Z,3228
2016-05-10T06:59:31.605Z,3240
2016-05-10T07:00:31.905Z,3256
2016-05-10T07:01:31.923Z,3276
2016-05-10T07:02:31.770Z,3300
2016-05-10T07:03:31.944Z,3320
2016-05-10T07:04:31.916Z,3348
2016-05-10T07:05:31.902Z,3376
2016-05-10T07:06:31.749Z,3396
2016-05-10T07:07:31.971Z,3428
2016-05-10T07:08:31.957Z,3456
2016-05-10T07:09:31.930Z,3484
2016-05-10T07:10:31.932Z,3508
2016-05-10T07:11:31.950Z,3536
2016-05-10T07:12:31.953Z,3576
2016-05-10T07:13:31.971Z,3604
2016-05-10T07:14:31.834Z,3624
2016-05-10T07:15:31.962Z,3664
2016-05-10T07:16:31.979Z,3696
2016-05-10T07:17:31.951Z,3720
2016-05-10T07:18:31.984Z,3792
2016-05-10T07:19:31.973Z,3876
2016-05-10T07:20:31.990Z,3976
2016-05-10T07:21:31.834Z,4072
2016-05-10T07:22:31.977Z,4180
2016-05-10T07:23:32.014Z,4292
2016-05-10T07:24:31.998Z,4412
2016-05-10T07:25:32.001Z,4544
2016-05-10T07:26:32.020Z,4676
2016-05-10T07:27:32.006Z,4828
2016-05-10T07:28:32.009Z,4948
2016-05-10T07:29:32.199Z,5076
2016-05-10T07:30:32.014Z,5204
2016-05-10T07:31:32.047Z,5316
2016-05-10T07:32:32.050Z,5424
2016-05-10T07:33:32.100Z,5532
2016-05-10T07:34:31.869Z,5640
2016-05-10T07:35:32.044Z,5736
2016-05-10T07:36:31.890Z,5840
2016-05-10T07:37:32.064Z,5956
2016-05-10T07:38:32.066Z,6092
2016-05-10T07:39:32.054Z,6196
2016-05-10T07:40:32.057Z,6344
2016-05-10T07:41:31.918Z,6484
2016-05-10T07:42:31.765Z,6640
2016-05-10T07:43:31.940Z,6824
2016-05-10T07:44:32.099Z,6992
2016-05-10T07:45:32.086Z,7156
2016-05-10T07:46:31.792Z,7340
2016-05-10T07:47:32.232Z,7516
2016-05-10T07:48:32.109Z,7668
2016-05-10T07:49:32.128Z,7788
2016-05-10T07:50:32.334Z,7876
2016-05-10T07:51:32.118Z,7908
2016-05-10T07:52:32.120Z,7956
2016-05-10T07:53:31.982Z,8000
2016-05-10T07:54:32.110Z,8084
2016-05-10T07:55:32.145Z,8144
2016-05-10T07:56:32.006Z,8220
2016-05-10T07:57:32.150Z,8276
2016-05-10T07:58:32.152Z,8328
2016-05-10T07:59:32.170Z,8348
2016-05-10T08:00:32.173Z,8364
2016-05-10T08:01:32.160Z,8384
2016-05-10T08:02:32.163Z,8364
2016-05-10T08:03:32.197Z,8328
2016-05-10T08:04:32.168Z,8300
2016-05-10T08:05:32.218Z,8252
2016-05-10T08:06:32.221Z,8216
2016-05-10T08:07:32.036Z,8168
2016-05-10T08:08:32.194Z,8112
2016-05-10T08:09:32.213Z,8076
2016-05-10T08:10:32.232Z,8028
2016-05-10T08:11:32.077Z,7980
2016-05-10T08:12:32.252Z,7920
2016-05-10T08:13:32.099Z,7844
2016-05-10T08:14:32.679Z,7764
2016-05-10T08:15:32.229Z,7752
2016-05-10T08:16:32.279Z,7740
2016-05-10T08:17:32.265Z,7748
2016-05-10T08:18:32.253Z,7748
2016-05-10T08:19:32.271Z,7756
2016-05-10T08:20:32.259Z,7764
2016-05-10T08:21:32.276Z,7756
2016-05-10T08:22:32.326Z,7752
2016-05-10T08:23:32.157Z,7760
2016-05-10T08:24:32.316Z,7784
2016-05-10T08:25:32.303Z,7800
2016-05-10T08:26:32.180Z,7828
2016-05-10T08:27:32.323Z,7884
2016-05-10T08:28:32.326Z,7924
2016-05-10T08:29:32.454Z,7976
2016-05-10T08:30:32.347Z,8024
2016-05-10T08:31:32.538Z,8060
2016-05-10T08:32:32.337Z,8084
2016-05-10T08:33:32.371Z,8096
2016-05-10T08:34:32.359Z,8100
2016-05-10T08:35:32.377Z,8068
2016-05-10T08:36:32.379Z,8036
2016-05-10T08:37:32.366Z,8004
2016-05-10T08:38:32.385Z,7988
2016-05-10T08:39:32.402Z,7964
2016-05-10T08:40:32.405Z,7924
2016-05-10T08:41:32.408Z,7892
2016-05-10T08:42:32.395Z,7876
2016-05-10T08:43:32.429Z,7876
2016-05-10T08:44:32.432Z,7884
2016-05-10T08:45:32.451Z,7920
2016-05-10T08:46:32.265Z,7980
2016-05-10T08:47:32.424Z,8048
2016-05-10T08:48:32.443Z,8144
2016-05-10T08:49:32.446Z,8268
2016-05-10T08:50:32.448Z,8384
2016-05-10T08:51:32.467Z,8492
2016-05-10T08:52:32.485Z,8636
2016-05-10T08:53:32.473Z,8788
2016-05-10T08:54:32.318Z,8944
2016-05-10T08:55:32.196Z,9104
2016-05-10T08:56:32.527Z,9260
2016-05-10T08:57:32.514Z,9436
2016-05-10T08:58:32.532Z,9616
2016-05-10T08:59:32.909Z,9780
2016-05-10T09:00:32.506Z,9936
2016-05-10T09:01:32.525Z,10100
2016-05-10T09:02:32.511Z,10268
2016-05-10T09:03:32.374Z,10432
2016-05-10T09:04:32.547Z,10608
2016-05-10T09:05:32.550Z,10784
2016-05-10T09:06:32.570Z,10988
2016-05-10T09:07:32.541Z,11188
2016-05-10T09:08:32.325Z,11396
2016-05-10T09:09:32.562Z,11588
2016-05-10T09:10:32.564Z,11744
2016-05-10T09:11:40.445Z,11924
2016-05-10T09:12:46.057Z,12076
2016-05-10T09:13:39.357Z,12124
2016-05-10T09:14:33.107Z,12140
2016-05-10T09:15:33.657Z,12092
2016-05-10T09:16:32.940Z,12040
2016-05-10T09:17:32.615Z,11952
2016-05-10T09:18:32.633Z,11936
2016-05-10T09:19:32.657Z,11808
2016-05-10T09:20:32.420Z,11720
2016-05-10T09:21:32.621Z,11672
2016-05-10T09:22:32.821Z,11644
2016-05-10T09:23:32.881Z,11664
2016-05-10T09:24:34.494Z,11808
2016-05-10T09:25:32.731Z,11676
2016-05-10T09:26:32.765Z,11664
2016-05-10T09:27:32.814Z,11580
2016-05-10T09:28:32.987Z,11544
2016-05-10T09:29:32.856Z,11520
2016-05-10T09:30:32.990Z,11440
2016-05-10T09:31:33.012Z,11392
2016-05-10T09:32:32.849Z,11292
2016-05-10T09:33:32.888Z,11192
2016-05-10T09:34:33.050Z,11100
2016-05-10T09:35:33.038Z,11004
2016-05-10T09:36:32.933Z,10908
2016-05-10T09:37:33.063Z,10816
2016-05-10T09:38:33.068Z,10740
2016-05-10T09:39:32.915Z,10660
2016-05-10T09:40:33.106Z,10564
2016-05-10T09:41:33.109Z,10468
2016-05-10T09:42:33.113Z,10352
2016-05-10T09:43:33.117Z,10220
2016-05-10T09:44:32.932Z,10104
2016-05-10T09:45:32.982Z,9988
2016-05-10T09:46:32.984Z,9872
2016-05-10T09:47:33.145Z,9776
2016-05-10T09:48:33.163Z,9680
2016-05-10T09:49:33.150Z,9584
2016-05-10T09:50:33.153Z,9500
2016-05-10T09:51:33.170Z,9420
2016-05-10T09:52:33.189Z,9324
2016-05-10T09:53:33.020Z,9204
2016-05-10T09:54:33.195Z,9060
2016-05-10T09:55:33.197Z,8892
2016-05-10T09:56:33.184Z,8720
2016-05-10T09:57:33.187Z,8556
2016-05-10T09:58:33.205Z,8404
2016-05-10T09:59:33.287Z,8268
2016-05-10T10:00:33.211Z,8136
2016-05-10T10:01:33.261Z,8008
2016-05-10T10:02:33.060Z,7888
2016-05-10T10:03:33.078Z,7760
2016-05-10T10:04:33.238Z,7612
2016-05-10T10:05:33.240Z,7484
2016-05-10T10:06:33.102Z,7368
2016-05-10T10:07:33.105Z,7264
2016-05-10T10:08:33.107Z,7156
2016-05-10T10:09:33.267Z,7048
2016-05-10T10:10:33.300Z,6940
2016-05-10T10:11:33.272Z,6856
2016-05-10T10:12:33.306Z,6780
2016-05-10T10:13:33.293Z,6728
2016-05-10T10:14:33.155Z,6664
2016-05-10T10:15:33.282Z,6600
2016-05-10T10:16:33.301Z,6544
2016-05-10T10:17:33.163Z,6496
2016-05-10T10:18:33.321Z,6436
2016-05-10T10:19:33.324Z,6372
2016-05-10T10:20:33.358Z,6300
2016-05-10T10:21:33.346Z,6232
2016-05-10T10:22:33.192Z,6172
2016-05-10T10:23:33.351Z,6120
2016-05-10T10:24:33.353Z,6092
2016-05-10T10:25:33.341Z,6076
2016-05-10T10:26:33.343Z,6080
2016-05-10T10:27:33.221Z,6092
2016-05-10T10:28:33.365Z,6116
2016-05-10T10:29:33.226Z,6136
2016-05-10T10:30:33.229Z,6156
2016-05-10T10:31:33.388Z,6176
2016-05-10T10:32:33.406Z,6212
2016-05-10T10:33:33.394Z,6232
2016-05-10T10:34:33.224Z,6252
2016-05-10T10:35:33.399Z,6264
2016-05-10T10:36:33.417Z,6280
2016-05-10T10:37:33.263Z,6296
2016-05-10T10:38:33.266Z,6316
2016-05-10T10:39:33.425Z,6324
2016-05-10T10:40:33.427Z,6336
2016-05-10T10:41:33.463Z,6348
2016-05-10T10:42:33.465Z,6348
2016-05-10T10:43:33.468Z,6336
2016-05-10T10:44:33.939Z,6328
2016-05-10T10:45:33.473Z,6316
2016-05-10T10:46:33.491Z,6300
2016-05-10T10:47:33.494Z,6276
2016-05-10T10:48:33.481Z,6256
2016-05-10T10:49:33.483Z,6232
2016-05-10T10:50:33.487Z,6208
2016-05-10T10:51:33.505Z,6184
2016-05-10T10:52:33.492Z,6160
2016-05-10T10:53:33.526Z,6136
2016-05-10T10:54:33.481Z,6120
2016-05-10T10:55:33.531Z,6112
2016-05-10T10:56:33.517Z,6116
2016-05-10T10:57:33.536Z,6132
2016-05-10T10:58:33.570Z,6152
2016-05-10T10:59:33.745Z,6172
2016-05-10T11:00:33.545Z,6188
2016-05-10T11:01:33.391Z,6200
2016-05-10T11:02:33.581Z,6200
2016-05-10T11:03:33.084Z,6188
2016-05-10T11:04:36.587Z,6164
2016-05-10T11:05:33.402Z,6156
2016-05-10T11:06:33.592Z,6152
2016-05-10T11:07:33.407Z,6148
2016-05-10T11:08:33.566Z,6156
2016-05-10T11:09:33.490Z,6156
2016-05-10T11:10:33.446Z,6164
2016-05-10T11:11:33.605Z,6176
2016-05-10T11:12:33.436Z,6180
2016-05-10T11:13:33.469Z,6184
2016-05-10T11:14:33.488Z,6204
2016-05-10T11:15:33.632Z,6224
2016-05-10T11:16:33.634Z,6248
2016-05-10T11:17:33.465Z,6276
2016-05-10T11:18:33.624Z,6304
2016-05-10T11:19:33.658Z,6324
2016-05-10T11:20:33.488Z,6348
2016-05-10T11:21:33.476Z,6372
2016-05-10T11:22:33.666Z,6412
2016-05-10T11:23:33.669Z,6448
2016-05-10T11:24:33.656Z,6492
2016-05-10T11:25:33.362Z,6540
2016-05-10T11:26:33.677Z,6628
2016-05-10T11:27:33.679Z,6688
2016-05-10T11:28:33.682Z,6756
2016-05-10T11:29:33.701Z,6824
2016-05-10T11:30:33.687Z,6864
2016-05-10T11:31:33.393Z,6932
2016-05-10T11:32:33.677Z,6980
2016-05-10T11:33:33.773Z,7032
2016-05-10T11:34:33.713Z,7076
2016-05-10T11:35:33.747Z,7112
2016-05-10T11:36:33.594Z,7136
2016-05-10T11:37:33.753Z,7156
2016-05-10T11:38:33.740Z,7164
2016-05-10T11:39:33.602Z,7180
2016-05-10T11:40:33.746Z,7188
2016-05-10T11:41:33.780Z,7180
2016-05-10T11:42:33.455Z,7204
2016-05-10T11:43:33.785Z,7168
2016-05-10T11:44:33.693Z,7160
2016-05-10T11:45:33.603Z,7156
2016-05-10T11:46:33.778Z,7156
2016-05-10T11:47:33.780Z,7136
2016-05-10T11:48:33.799Z,7132
2016-05-10T11:49:33.801Z,7120
2016-05-10T11:50:33.648Z,7120
2016-05-10T11:51:33.807Z,7136
2016-05-10T11:52:33.824Z,7148
2016-05-10T11:53:33.827Z,7168
2016-05-10T11:54:33.862Z,7180
2016-05-10T11:55:33.832Z,7192
2016-05-10T11:56:33.679Z,7196
2016-05-10T11:57:33.682Z,7220
2016-05-10T11:58:33.700Z,7252
2016-05-10T11:59:34.015Z,7296
2016-05-10T12:00:33.862Z,7344
2016-05-10T12:01:33.880Z,7388
2016-05-10T12:02:33.867Z,7428
2016-05-10T12:03:33.853Z,7452
2016-05-10T12:04:33.888Z,7460
2016-05-10T12:05:33.906Z,7456
2016-05-10T12:06:33.894Z,7440
2016-05-10T12:07:33.740Z,7416
2016-05-10T12:08:33.899Z,7392
2016-05-10T12:09:33.933Z,7372
2016-05-10T12:10:33.905Z,7352
2016-05-10T12:11:33.783Z,7332
2016-05-10T12:12:33.941Z,7320
2016-05-10T12:13:33.944Z,7308
2016-05-10T12:14:33.775Z,7288
2016-05-10T12:15:33.793Z,7264
2016-05-10T12:16:33.968Z,7232
2016-05-10T12:17:33.986Z,7196
2016-05-10T12:18:33.816Z,7156
2016-05-10T12:19:33.976Z,7108
2016-05-10T12:20:33.994Z,7056
2016-05-10T12:21:33.996Z,7000
2016-05-10T12:22:34.030Z,6936
2016-05-10T12:23:33.987Z,6868
2016-05-10T12:24:33.832Z,6800
2016-05-10T12:25:33.993Z,6724
2016-05-10T12:26:34.026Z,6644
2016-05-10T12:27:33.887Z,6564
2016-05-10T12:28:34.016Z,6500
2016-05-10T12:29:34.081Z,6436
2016-05-10T12:30:34.037Z,6364
2016-05-10T12:31:34.040Z,6288
2016-05-10T12:32:34.025Z,6192
2016-05-10T12:33:34.045Z,6088
2016-05-10T12:34:34.048Z,5996
2016-05-10T12:35:34.065Z,5896
2016-05-10T12:36:34.053Z,5816
2016-05-10T12:37:34.056Z,5760
2016-05-10T12:38:34.073Z,5724
2016-05-10T12:39:34.061Z,5696
2016-05-10T12:40:34.094Z,5660
2016-05-10T12:41:34.066Z,5604
2016-05-10T12:42:34.084Z,5532
2016-05-10T12:43:33.947Z,5396
2016-05-10T12:44:33.964Z,5216
2016-05-10T12:45:34.811Z,4992
2016-05-10T12:46:34.110Z,4748
2016-05-10T12:47:34.130Z,4524
2016-05-10T12:48:34.100Z,4300
2016-05-10T12:49:34.135Z,4152
2016-05-10T12:50:33.840Z,4048
2016-05-10T12:51:33.983Z,3988
2016-05-10T12:52:34.127Z,3864
2016-05-10T12:53:34.161Z,3708
2016-05-10T12:54:34.163Z,3628
2016-05-10T12:55:33.978Z,3544
2016-05-10T12:56:34.154Z,3504
2016-05-10T12:57:34.171Z,3480
2016-05-10T12:58:34.034Z,3468
2016-05-10T12:59:34.317Z,3552
2016-05-10T13:00:34.179Z,3680
2016-05-10T13:01:34.042Z,3848
2016-05-10T13:02:33.904Z,4016
2016-05-10T13:03:34.063Z,4188
2016-05-10T13:04:34.222Z,4368
2016-05-10T13:05:34.225Z,4540
2016-05-10T13:06:34.228Z,4732
2016-05-10T13:07:34.230Z,4948
2016-05-10T13:08:34.576Z,5180
2016-05-10T13:09:34.297Z,5364
2016-05-10T13:10:34.503Z,5548
2016-05-10T13:11:34.553Z,5696
2016-05-10T13:12:34.493Z,5848
2016-05-10T13:13:34.433Z,5976
2016-05-10T13:14:34.967Z,6084
2016-05-10T13:15:34.282Z,6180
2016-05-10T13:16:33.925Z,6268
2016-05-10T13:17:34.288Z,6368
2016-05-10T13:18:34.275Z,6420
2016-05-10T13:19:34.137Z,6464
2016-05-10T13:20:34.280Z,6528
2016-05-10T13:21:34.143Z,6580
2016-05-10T13:22:34.302Z,6644
2016-05-10T13:23:34.132Z,6712
2016-05-10T13:24:34.290Z,6788
2016-05-10T13:25:34.279Z,6860
2016-05-10T13:26:34.140Z,6940
2016-05-10T13:27:34.174Z,7000
2016-05-10T13:28:34.145Z,7044
2016-05-10T13:29:34.664Z,7096
2016-05-10T13:30:34.323Z,7132
2016-05-10T13:31:34.341Z,7108
2016-05-10T13:32:34.312Z,7108
2016-05-10T13:33:34.315Z,7096
2016-05-10T13:34:34.334Z,7084
2016-05-10T13:35:34.226Z,7088
2016-05-10T13:36:34.386Z,7100
2016-05-10T13:37:34.201Z,7088
2016-05-10T13:38:34.360Z,7060
2016-05-10T13:39:34.331Z,7012
2016-05-10T13:40:34.380Z,6944
2016-05-10T13:41:34.399Z,6888